createdAt,value
2016-12-10T00:00:07.100Z,0
2016-12-10T00:01:07.187Z,0
2016-12-10T00:02:07.086Z,0
2016-12-10T00:03:07.073Z,0
2016-12-10T00:04:07.018Z,0
2016-12-10T00:05:07.818Z,0
2016-12-10T00:06:07.058Z,0
2016-12-10T00:07:06.988Z,0
2016-12-10T00:08:07.816Z,0
2016-12-10T00:09:06.985Z,0
2016-12-10T00:10:06.981Z,0
2016-12-10T00:11:07.829Z,0
2016-12-10T00:12:06.963Z,0
2016-12-10T00:13:06.879Z,0
2016-12-10T00:14:06.900Z,0
2016-12-10T00:15:07.594Z,0
2016-12-10T00:16:06.676Z,0
2016-12-10T00:17:06.668Z,0
2016-12-10T00:18:07.130Z,0
2016-12-10T00:19:06.895Z,0
2016-12-10T00:20:06.944Z,0
2016-12-10T00:21:07.338Z,0
2016-12-10T00:22:06.603Z,0
2016-12-10T00:23:06.589Z,0
2016-12-10T00:24:07.154Z,0
2016-12-10T00:25:06.785Z,0
2016-12-10T00:26:06.550Z,0
2016-12-10T00:27:06.559Z,0
2016-12-10T00:28:07.493Z,0
2016-12-10T00:29:06.514Z,0
2016-12-10T00:30:06.505Z,0
2016-12-10T00:31:06.488Z,0
2016-12-10T00:32:06.472Z,0
2016-12-10T00:33:06.462Z,0
2016-12-10T00:34:06.450Z,0
2016-12-10T00:35:06.441Z,0
2016-12-10T00:36:06.431Z,0
2016-12-10T00:37:06.411Z,0
2016-12-10T00:38:06.399Z,0
2016-12-10T00:39:06.386Z,0
2016-12-10T00:40:06.708Z,0
2016-12-10T00:41:06.364Z,0
2016-12-10T00:42:06.352Z,0
2016-12-10T00:43:06.343Z,0
2016-12-10T00:44:06.325Z,0
2016-12-10T00:45:06.313Z,0
2016-12-10T00:46:06.299Z,0
2016-12-10T00:47:06.291Z,0
2016-12-10T00:48:06.276Z,0
2016-12-10T00:49:06.261Z,0
2016-12-10T00:50:06.254Z,0
2016-12-10T00:51:06.237Z,0
2016-12-10T00:52:06.230Z,0
2016-12-10T00:53:06.217Z,0
2016-12-10T00:54:06.201Z,0
2016-12-10T00:55:06.192Z,0
2016-12-10T00:56:06.178Z,0
2016-12-10T00:57:06.160Z,0
2016-12-10T00:58:06.157Z,0
2016-12-10T00:59:06.144Z,0
2016-12-10T01:00:06.131Z,0
2016-12-10T01:01:06.118Z,0
2016-12-10T01:02:06.110Z,0
2016-12-10T01:03:06.095Z,0
2016-12-10T01:04:06.080Z,0
2016-12-10T01:05:06.070Z,0
2016-12-10T01:06:06.056Z,0
2016-12-10T01:07:06.050Z,0
2016-12-10T01:08:06.040Z,0
2016-12-10T01:09:06.021Z,0
2016-12-10T01:10:06.010Z,0
2016-12-10T01:11:05.996Z,0
2016-12-10T01:12:06.015Z,0
2016-12-10T01:13:05.975Z,0
2016-12-10T01:14:05.959Z,0
2016-12-10T01:15:05.948Z,0
2016-12-10T01:16:05.947Z,0
2016-12-10T01:17:05.921Z,0
2016-12-10T01:18:05.912Z,0
2016-12-10T01:19:05.900Z,0
2016-12-10T01:20:05.885Z,0
2016-12-10T01:21:06.200Z,0
2016-12-10T01:22:05.860Z,0
2016-12-10T01:23:05.849Z,0
2016-12-10T01:24:05.840Z,0
2016-12-10T01:25:05.825Z,0
2016-12-10T01:26:05.811Z,0
2016-12-10T01:27:06.116Z,0
2016-12-10T01:28:05.787Z,0
2016-12-10T01:29:05.790Z,0
2016-12-10T01:30:05.768Z,0
2016-12-10T01:31:05.757Z,0
2016-12-10T01:32:05.762Z,0
2016-12-10T01:33:05.724Z,0
2016-12-10T01:34:05.713Z,0
2016-12-10T01:35:05.703Z,0
2016-12-10T01:36:05.690Z,0
2016-12-10T01:37:05.677Z,0
2016-12-10T01:38:05.660Z,0
2016-12-10T01:39:05.651Z,0
2016-12-10T01:40:05.640Z,0
2016-12-10T01:41:05.627Z,0
2016-12-10T01:42:05.620Z,0
2016-12-10T01:43:05.602Z,0
2016-12-10T01:44:05.593Z,0
2016-12-10T01:45:05.575Z,0
2016-12-10T01:46:05.563Z,0
2016-12-10T01:47:05.551Z,0
2016-12-10T01:48:05.539Z,0
2016-12-10T01:49:05.527Z,0
2016-12-10T01:50:05.514Z,0
2016-12-10T01:51:05.500Z,0
2016-12-10T01:52:05.482Z,0
2016-12-10T01:53:05.472Z,0
2016-12-10T01:54:05.461Z,0
2016-12-10T01:55:05.449Z,0
2016-12-10T01:56:05.443Z,0
2016-12-10T01:57:05.421Z,0
2016-12-10T01:58:05.411Z,0
2016-12-10T01:59:05.396Z,0
2016-12-10T02:00:05.386Z,0
2016-12-10T02:01:05.370Z,0
2016-12-10T02:02:05.360Z,0
2016-12-10T02:03:05.344Z,0
2016-12-10T02:04:05.329Z,0
2016-12-10T02:05:05.320Z,0
2016-12-10T02:06:05.313Z,0
2016-12-10T02:07:05.613Z,0
2016-12-10T02:08:05.294Z,0
2016-12-10T02:09:05.271Z,0
2016-12-10T02:10:05.257Z,0
2016-12-10T02:11:05.244Z,0
2016-12-10T02:12:05.227Z,0
2016-12-10T02:13:05.244Z,0
2016-12-10T02:14:05.203Z,0
2016-12-10T02:15:05.192Z,0
2016-12-10T02:16:05.179Z,0
2016-12-10T02:17:05.170Z,0
2016-12-10T02:18:05.152Z,0
2016-12-10T02:19:05.149Z,0
2016-12-10T02:20:05.126Z,0
2016-12-10T02:21:05.112Z,0
2016-12-10T02:22:05.105Z,0
2016-12-10T02:23:05.091Z,0
2016-12-10T02:24:05.076Z,0
2016-12-10T02:25:05.381Z,0
2016-12-10T02:26:05.054Z,0
2016-12-10T02:27:05.039Z,0
2016-12-10T02:28:05.025Z,0
2016-12-10T02:29:05.009Z,0
2016-12-10T02:30:05.000Z,0
2016-12-10T02:31:04.983Z,0
2016-12-10T02:32:04.975Z,0
2016-12-10T02:33:04.964Z,0
2016-12-10T02:34:04.953Z,0
2016-12-10T02:35:04.939Z,0
2016-12-10T02:36:04.919Z,0
2016-12-10T02:37:04.910Z,0
2016-12-10T02:38:04.899Z,0
2016-12-10T02:39:04.886Z,0
2016-12-10T02:40:04.872Z,0
2016-12-10T02:41:04.862Z,0
2016-12-10T02:42:04.855Z,0
2016-12-10T02:43:04.839Z,0
2016-12-10T02:44:04.817Z,0
2016-12-10T02:45:04.809Z,0
2016-12-10T02:46:04.798Z,0
2016-12-10T02:47:04.794Z,0
2016-12-10T02:48:05.083Z,0
2016-12-10T02:49:04.764Z,0
2016-12-10T02:50:04.746Z,0
2016-12-10T02:51:04.735Z,0
2016-12-10T02:52:04.727Z,0
2016-12-10T02:53:04.876Z,0
2016-12-10T02:54:05.328Z,0
2016-12-10T02:55:04.684Z,0
2016-12-10T02:56:04.674Z,0
2016-12-10T02:57:04.658Z,0
2016-12-10T02:58:04.677Z,0
2016-12-10T02:59:04.637Z,0
2016-12-10T03:00:04.620Z,0
2016-12-10T03:01:04.611Z,0
2016-12-10T03:02:04.596Z,0
2016-12-10T03:03:04.583Z,0
2016-12-10T03:04:04.567Z,0
2016-12-10T03:05:04.558Z,0
2016-12-10T03:06:04.546Z,0
2016-12-10T03:07:04.532Z,0
2016-12-10T03:08:04.529Z,0
2016-12-10T03:09:04.518Z,0
2016-12-10T03:10:04.492Z,0
2016-12-10T03:11:04.483Z,0
2016-12-10T03:12:04.469Z,0
2016-12-10T03:13:04.461Z,0
2016-12-10T03:14:04.445Z,0
2016-12-10T03:15:04.431Z,0
2016-12-10T03:16:04.434Z,0
2016-12-10T03:17:04.404Z,0
2016-12-10T03:18:04.392Z,0
2016-12-10T03:19:04.381Z,0
2016-12-10T03:20:04.422Z,0
2016-12-10T03:21:04.355Z,0
2016-12-10T03:22:04.351Z,0
2016-12-10T03:23:04.498Z,0
2016-12-10T03:24:04.324Z,0
2016-12-10T03:25:04.619Z,0
2016-12-10T03:26:04.291Z,0
2016-12-10T03:27:04.287Z,0
2016-12-10T03:28:04.346Z,0
2016-12-10T03:29:04.254Z,0
2016-12-10T03:30:04.246Z,0
2016-12-10T03:31:04.231Z,0
2016-12-10T03:32:04.694Z,0
2016-12-10T03:33:04.205Z,0
2016-12-10T03:34:04.200Z,0
2016-12-10T03:35:04.187Z,0
2016-12-10T03:36:04.169Z,0
2016-12-10T03:37:04.157Z,0
2016-12-10T03:38:04.142Z,0
2016-12-10T03:39:04.131Z,0
2016-12-10T03:40:04.122Z,0
2016-12-10T03:41:04.103Z,0
2016-12-10T03:42:04.095Z,0
2016-12-10T03:43:04.094Z,0
2016-12-10T03:44:04.072Z,0
2016-12-10T03:45:04.058Z,0
2016-12-10T03:46:04.041Z,0
2016-12-10T03:47:04.026Z,0
2016-12-10T03:48:04.022Z,0
2016-12-10T03:49:04.003Z,0
2016-12-10T03:50:03.993Z,0
2016-12-10T03:51:03.976Z,0
2016-12-10T03:52:03.965Z,0
2016-12-10T03:53:04.266Z,0
2016-12-10T03:54:03.941Z,0
2016-12-10T03:55:04.042Z,0
2016-12-10T03:56:03.912Z,0
2016-12-10T03:57:03.907Z,0
2016-12-10T03:58:03.902Z,0
2016-12-10T03:59:03.874Z,0
2016-12-10T04:00:03.865Z,0
2016-12-10T04:01:03.850Z,0
2016-12-10T04:02:03.862Z,0
2016-12-10T04:03:03.823Z,0
2016-12-10T04:04:03.811Z,0
2016-12-10T04:05:03.797Z,0
2016-12-10T04:06:03.784Z,0
2016-12-10T04:07:03.774Z,0
2016-12-10T04:08:03.763Z,0
2016-12-10T04:09:03.747Z,0
2016-12-10T04:10:03.731Z,0
2016-12-10T04:11:03.724Z,0
2016-12-10T04:12:03.706Z,0
2016-12-10T04:13:03.702Z,0
2016-12-10T04:14:03.998Z,0
2016-12-10T04:15:03.671Z,0
2016-12-10T04:16:03.654Z,0
2016-12-10T04:17:03.646Z,0
2016-12-10T04:18:03.629Z,0
2016-12-10T04:19:03.617Z,0
2016-12-10T04:20:03.603Z,0
2016-12-10T04:21:03.591Z,0
2016-12-10T04:22:03.577Z,0
2016-12-10T04:23:03.566Z,0
2016-12-10T04:24:03.556Z,0
2016-12-10T04:25:03.567Z,0
2016-12-10T04:26:03.529Z,0
2016-12-10T04:27:03.513Z,0
2016-12-10T04:28:03.502Z,0
2016-12-10T04:29:03.491Z,0
2016-12-10T04:30:03.474Z,0
2016-12-10T04:31:03.463Z,0
2016-12-10T04:32:03.450Z,0
2016-12-10T04:33:03.438Z,0
2016-12-10T04:34:03.427Z,0
2016-12-10T04:35:03.413Z,0
2016-12-10T04:36:03.423Z,0
2016-12-10T04:37:03.384Z,0
2016-12-10T04:38:03.374Z,0
2016-12-10T04:39:03.369Z,0
2016-12-10T04:40:03.347Z,0
2016-12-10T04:41:03.335Z,0
2016-12-10T04:42:03.324Z,0
2016-12-10T04:43:03.319Z,0
2016-12-10T04:44:03.616Z,0
2016-12-10T04:45:03.285Z,0
2016-12-10T04:46:03.271Z,0
2016-12-10T04:47:03.256Z,0
2016-12-10T04:48:03.279Z,0
2016-12-10T04:49:03.225Z,0
2016-12-10T04:50:03.222Z,0
2016-12-10T04:51:03.206Z,0
2016-12-10T04:52:03.192Z,0
2016-12-10T04:53:03.211Z,0
2016-12-10T04:54:03.169Z,0
2016-12-10T04:55:03.155Z,0
2016-12-10T04:56:03.142Z,0
2016-12-10T04:57:03.127Z,0
2016-12-10T04:58:03.437Z,0
2016-12-10T04:59:03.101Z,0
2016-12-10T05:00:03.092Z,0
2016-12-10T05:01:03.075Z,0
2016-12-10T05:02:03.068Z,0
2016-12-10T05:03:03.059Z,0
2016-12-10T05:04:03.041Z,0
2016-12-10T05:05:03.029Z,0
2016-12-10T05:06:03.013Z,0
2016-12-10T05:07:03.011Z,0
2016-12-10T05:08:02.988Z,0
2016-12-10T05:09:02.976Z,0
2016-12-10T05:10:02.967Z,0
2016-12-10T05:11:02.953Z,0
2016-12-10T05:12:02.942Z,0
2016-12-10T05:13:02.926Z,0
2016-12-10T05:14:02.915Z,0
2016-12-10T05:15:02.907Z,0
2016-12-10T05:16:02.897Z,0
2016-12-10T05:17:02.874Z,0
2016-12-10T05:18:02.861Z,0
2016-12-10T05:19:02.853Z,0
2016-12-10T05:20:02.837Z,0
2016-12-10T05:21:02.858Z,0
2016-12-10T05:22:02.808Z,0
2016-12-10T05:23:02.813Z,0
2016-12-10T05:24:03.101Z,0
2016-12-10T05:25:02.775Z,0
2016-12-10T05:26:02.761Z,0
2016-12-10T05:27:02.752Z,0
2016-12-10T05:28:02.738Z,0
2016-12-10T05:29:02.725Z,0
2016-12-10T05:30:02.715Z,0
2016-12-10T05:31:02.691Z,0
2016-12-10T05:32:02.688Z,0
2016-12-10T05:33:02.673Z,0
2016-12-10T05:34:02.661Z,0
2016-12-10T05:35:02.959Z,0
2016-12-10T05:36:02.635Z,0
2016-12-10T05:37:02.622Z,0
2016-12-10T05:38:02.615Z,0
2016-12-10T05:39:02.596Z,0
2016-12-10T05:40:02.591Z,0
2016-12-10T05:41:02.569Z,0
2016-12-10T05:42:02.559Z,0
2016-12-10T05:43:02.550Z,0
2016-12-10T05:44:02.542Z,0
2016-12-10T05:45:02.523Z,0
2016-12-10T05:46:02.511Z,0
2016-12-10T05:47:02.495Z,0
2016-12-10T05:48:02.484Z,0
2016-12-10T05:49:02.501Z,0
2016-12-10T05:50:02.457Z,0
2016-12-10T05:51:02.450Z,0
2016-12-10T05:52:02.440Z,0
2016-12-10T05:53:02.419Z,0
2016-12-10T05:54:02.409Z,0
2016-12-10T05:55:02.397Z,0
2016-12-10T05:56:02.379Z,0
2016-12-10T05:57:02.368Z,0
2016-12-10T05:58:02.357Z,0
2016-12-10T05:59:02.345Z,0
2016-12-10T06:00:02.335Z,0
2016-12-10T06:01:02.326Z,0
2016-12-10T06:02:02.316Z,0
2016-12-10T06:03:02.294Z,0
2016-12-10T06:04:02.281Z,0
2016-12-10T06:05:02.298Z,0
2016-12-10T06:06:02.283Z,0
2016-12-10T06:07:02.241Z,0
2016-12-10T06:08:02.233Z,0
2016-12-10T06:09:02.223Z,0
2016-12-10T06:10:02.207Z,0
2016-12-10T06:11:02.575Z,0
2016-12-10T06:12:02.216Z,0
2016-12-10T06:13:02.175Z,0
2016-12-10T06:14:02.159Z,0
2016-12-10T06:15:02.146Z,0
2016-12-10T06:16:02.131Z,0
2016-12-10T06:17:02.119Z,0
2016-12-10T06:18:02.103Z,0
2016-12-10T06:19:02.092Z,0
2016-12-10T06:20:02.076Z,0
2016-12-10T06:21:02.068Z,0
2016-12-10T06:22:02.057Z,0
2016-12-10T06:23:02.045Z,0
2016-12-10T06:24:02.026Z,0
2016-12-10T06:25:02.015Z,0
2016-12-10T06:26:02.005Z,0
2016-12-10T06:27:01.993Z,0
2016-12-10T06:28:01.980Z,0
2016-12-10T06:29:01.966Z,4
2016-12-10T06:30:01.964Z,4
2016-12-10T06:31:01.942Z,4
2016-12-10T06:32:01.928Z,0
2016-12-10T06:33:01.937Z,4
2016-12-10T06:34:01.905Z,4
2016-12-10T06:35:02.173Z,4
2016-12-10T06:36:01.963Z,8
2016-12-10T06:37:01.866Z,8
2016-12-10T06:38:02.301Z,12
2016-12-10T06:39:01.842Z,12
2016-12-10T06:40:01.831Z,16
2016-12-10T06:41:01.816Z,16
2016-12-10T06:42:02.494Z,20
2016-12-10T06:43:01.805Z,20
2016-12-10T06:44:01.780Z,24
2016-12-10T06:45:01.761Z,28
2016-12-10T06:46:01.752Z,32
2016-12-10T06:47:01.738Z,36
2016-12-10T06:48:01.729Z,44
2016-12-10T06:49:01.714Z,48
2016-12-10T06:50:01.711Z,56
2016-12-10T06:51:01.698Z,64
2016-12-10T06:52:01.934Z,68
2016-12-10T06:53:01.661Z,76
2016-12-10T06:54:01.644Z,84
2016-12-10T06:55:01.639Z,92
2016-12-10T06:56:01.623Z,100
2016-12-10T06:57:01.617Z,108
2016-12-10T06:58:01.594Z,116
2016-12-10T06:59:01.707Z,124
2016-12-10T07:00:01.697Z,132
2016-12-10T07:01:01.836Z,136
2016-12-10T07:02:01.545Z,148
2016-12-10T07:03:01.536Z,156
2016-12-10T07:04:01.519Z,168
2016-12-10T07:05:01.509Z,176
2016-12-10T07:06:01.599Z,188
2016-12-10T07:07:01.484Z,208
2016-12-10T07:08:01.472Z,220
2016-12-10T07:09:01.458Z,232
2016-12-10T07:10:01.592Z,248
2016-12-10T07:11:01.433Z,264
2016-12-10T07:12:01.419Z,280
2016-12-10T07:13:01.455Z,296
2016-12-10T07:14:01.388Z,312
2016-12-10T07:15:01.380Z,328
2016-12-10T07:16:01.378Z,348
2016-12-10T07:17:01.355Z,368
2016-12-10T07:18:01.362Z,388
2016-12-10T07:19:01.640Z,412
2016-12-10T07:20:01.319Z,436
2016-12-10T07:21:01.297Z,460
2016-12-10T07:22:01.288Z,488
2016-12-10T07:23:01.284Z,512
2016-12-10T07:24:01.535Z,540
2016-12-10T07:25:01.506Z,568
2016-12-10T07:26:01.235Z,600
2016-12-10T07:27:01.227Z,632
2016-12-10T07:28:01.212Z,660
2016-12-10T07:29:01.196Z,692
2016-12-10T07:30:01.185Z,720
2016-12-10T07:31:01.445Z,744
2016-12-10T07:32:01.158Z,768
2016-12-10T07:33:01.148Z,792
2016-12-10T07:34:01.142Z,808
2016-12-10T07:35:01.285Z,832
2016-12-10T07:36:01.365Z,848
2016-12-10T07:37:01.100Z,872
2016-12-10T07:38:01.085Z,892
2016-12-10T07:39:01.074Z,916
2016-12-10T07:40:01.061Z,932
2016-12-10T07:41:01.179Z,952
2016-12-10T07:42:01.034Z,964
2016-12-10T07:43:01.023Z,976
2016-12-10T07:44:01.009Z,988
2016-12-10T07:45:00.993Z,996
2016-12-10T07:46:00.987Z,1004
2016-12-10T07:47:00.971Z,1012
2016-12-10T07:48:00.960Z,1020
2016-12-10T07:49:00.947Z,1028
2016-12-10T07:50:00.932Z,1028
2016-12-10T07:51:00.920Z,1040
2016-12-10T07:52:00.905Z,1044
2016-12-10T07:53:00.895Z,1052
2016-12-10T07:54:00.880Z,1064
2016-12-10T07:55:00.871Z,1072
2016-12-10T07:56:00.855Z,1084
2016-12-10T07:57:00.840Z,1100
2016-12-10T07:58:00.831Z,1112
2016-12-10T07:59:00.877Z,1124
2016-12-10T08:00:01.119Z,1140
2016-12-10T08:01:00.789Z,1156
2016-12-10T08:02:00.782Z,1176
2016-12-10T08:03:00.776Z,1196
2016-12-10T08:04:00.754Z,1228
2016-12-10T08:05:00.741Z,1260
2016-12-10T08:06:00.727Z,1288
2016-12-10T08:07:00.718Z,1312
2016-12-10T08:08:00.735Z,1340
2016-12-10T08:09:00.691Z,1368
2016-12-10T08:10:01.064Z,1388
2016-12-10T08:11:00.668Z,1416
2016-12-10T08:12:00.652Z,1448
2016-12-10T08:13:00.643Z,1476
2016-12-10T08:14:00.656Z,1500
2016-12-10T08:15:00.615Z,1528
2016-12-10T08:16:00.608Z,1552
2016-12-10T08:17:00.597Z,1584
2016-12-10T08:18:00.616Z,1612
2016-12-10T08:19:00.884Z,1644
2016-12-10T08:20:00.557Z,1672
2016-12-10T08:21:00.545Z,1704
2016-12-10T08:22:00.537Z,1736
2016-12-10T08:23:00.525Z,1768
2016-12-10T08:24:00.511Z,1804
2016-12-10T08:25:00.554Z,1848
2016-12-10T08:26:00.571Z,1888
2016-12-10T08:27:00.579Z,1924
2016-12-10T08:28:00.467Z,1956
2016-12-10T08:29:00.447Z,1988
2016-12-10T08:30:00.442Z,2012
2016-12-10T08:31:00.425Z,2040
2016-12-10T08:32:00.414Z,2064
2016-12-10T08:33:00.401Z,2092
2016-12-10T08:34:00.388Z,2112
2016-12-10T08:35:00.535Z,2116
2016-12-10T08:36:00.527Z,2136
2016-12-10T08:37:00.354Z,2156
2016-12-10T08:38:00.343Z,2176
2016-12-10T08:39:00.659Z,2188
2016-12-10T08:40:00.316Z,2204
2016-12-10T08:41:00.305Z,2228
2016-12-10T08:42:00.294Z,2240
2016-12-10T08:43:00.276Z,2244
2016-12-10T08:44:00.520Z,2248
2016-12-10T08:45:00.260Z,2252
2016-12-10T08:46:00.401Z,2252
2016-12-10T08:47:00.234Z,2252
2016-12-10T08:48:00.216Z,2244
2016-12-10T08:49:00.213Z,2240
2016-12-10T08:50:00.245Z,2220
2016-12-10T08:51:00.407Z,2208
2016-12-10T08:52:00.288Z,2196
2016-12-10T08:53:00.161Z,2184
2016-12-10T08:54:00.149Z,2184
2016-12-10T08:55:00.140Z,2180
2016-12-10T08:56:00.731Z,2188
2016-12-10T08:57:00.120Z,2188
2016-12-10T08:58:00.102Z,2184
2016-12-10T08:59:00.088Z,2196
2016-12-10T09:00:00.078Z,2184
2016-12-10T09:01:00.071Z,2180
2016-12-10T09:02:00.057Z,2184
2016-12-10T09:03:00.044Z,2180
2016-12-10T09:04:00.056Z,2172
2016-12-10T09:05:00.021Z,2168
2016-12-10T09:06:00.010Z,2168
2016-12-10T09:07:00.001Z,2176
2016-12-10T09:07:59.988Z,2192
2016-12-10T09:08:59.973Z,2220
2016-12-10T09:09:59.963Z,2248
2016-12-10T09:10:59.969Z,2276
2016-12-10T09:11:59.939Z,2296
2016-12-10T09:12:59.934Z,2328
2016-12-10T09:13:59.916Z,2348
2016-12-10T09:14:59.908Z,2360
2016-12-10T09:15:59.893Z,2352
2016-12-10T09:16:59.883Z,2324
2016-12-10T09:17:59.870Z,2272
2016-12-10T09:18:59.855Z,2216
2016-12-10T09:19:59.848Z,2172
2016-12-10T09:20:59.843Z,2132
2016-12-10T09:21:59.828Z,2108
2016-12-10T09:22:59.814Z,2088
2016-12-10T09:23:59.803Z,2092
2016-12-10T09:24:59.789Z,2088
2016-12-10T09:25:59.782Z,2092
2016-12-10T09:26:59.769Z,2088
2016-12-10T09:27:59.759Z,2076
2016-12-10T09:28:59.743Z,2072
2016-12-10T09:29:59.730Z,2072
2016-12-10T09:30:59.719Z,2076
2016-12-10T09:32:00.024Z,2076
2016-12-10T09:32:59.696Z,2084
2016-12-10T09:33:59.684Z,2100
2016-12-10T09:34:59.710Z,2104
2016-12-10T09:35:59.660Z,2116
2016-12-10T09:36:59.647Z,2136
2016-12-10T09:37:59.640Z,2156
2016-12-10T09:38:59.623Z,2176
2016-12-10T09:39:59.614Z,2188
2016-12-10T09:40:59.608Z,2208
2016-12-10T09:41:59.592Z,2224
2016-12-10T09:42:59.577Z,2236
2016-12-10T09:43:59.571Z,2260
2016-12-10T09:44:59.557Z,2288
2016-12-10T09:45:59.550Z,2316
2016-12-10T09:46:59.535Z,2336
2016-12-10T09:47:59.520Z,2364
2016-12-10T09:48:59.512Z,2368
2016-12-10T09:49:59.814Z,2364
2016-12-10T09:50:59.492Z,2376
2016-12-10T09:51:59.475Z,2400
2016-12-10T09:52:59.477Z,2420
2016-12-10T09:53:59.482Z,2444
2016-12-10T09:54:59.444Z,2460
2016-12-10T09:55:59.449Z,2480
2016-12-10T09:56:59.418Z,2504
2016-12-10T09:57:59.406Z,2500
2016-12-10T09:58:59.399Z,2516
2016-12-10T09:59:59.394Z,2524
2016-12-10T10:00:59.377Z,2520
2016-12-10T10:01:59.368Z,2504
2016-12-10T10:02:59.354Z,2496
2016-12-10T10:03:59.349Z,2484
2016-12-10T10:04:59.331Z,2464
2016-12-10T10:05:59.323Z,2436
2016-12-10T10:06:59.307Z,2404
2016-12-10T10:07:59.323Z,2364
2016-12-10T10:08:59.282Z,2332
2016-12-10T10:09:59.273Z,2312
2016-12-10T10:10:59.263Z,2288
2016-12-10T10:11:59.254Z,2292
2016-12-10T10:12:59.242Z,2308
2016-12-10T10:13:59.231Z,2308
2016-12-10T10:14:59.217Z,2300
2016-12-10T10:15:59.209Z,2344
2016-12-10T10:16:59.193Z,2392
2016-12-10T10:17:59.189Z,2416
2016-12-10T10:18:59.174Z,2404
2016-12-10T10:19:59.160Z,2388
2016-12-10T10:20:59.155Z,2356
2016-12-10T10:21:59.136Z,2304
2016-12-10T10:22:59.124Z,2284
2016-12-10T10:23:59.116Z,2272
2016-12-10T10:24:59.106Z,2280
2016-12-10T10:25:59.103Z,2316
2016-12-10T10:26:59.087Z,2424
2016-12-10T10:27:59.397Z,2536
2016-12-10T10:28:59.060Z,2668
2016-12-10T10:29:59.050Z,2800
2016-12-10T10:30:59.037Z,2944
2016-12-10T10:31:59.027Z,3192
2016-12-10T10:32:59.017Z,3544
2016-12-10T10:33:59.005Z,3920
2016-12-10T10:34:58.996Z,4124
2016-12-10T10:35:59.303Z,4184
2016-12-10T10:36:58.974Z,4252
2016-12-10T10:37:58.969Z,4144
2016-12-10T10:38:58.952Z,3956
2016-12-10T10:39:58.946Z,3796
2016-12-10T10:40:58.931Z,3624
2016-12-10T10:41:58.923Z,3448
2016-12-10T10:42:58.910Z,3284
2016-12-10T10:43:58.907Z,3144
2016-12-10T10:44:58.886Z,3060
2016-12-10T10:45:58.883Z,2920
2016-12-10T10:46:58.871Z,2824
2016-12-10T10:47:58.861Z,2768
2016-12-10T10:48:58.847Z,2704
2016-12-10T10:49:58.842Z,2592
2016-12-10T10:50:58.828Z,2460
2016-12-10T10:51:58.822Z,2388
2016-12-10T10:52:58.813Z,2336
2016-12-10T10:53:59.122Z,2332
2016-12-10T10:54:58.787Z,2340
2016-12-10T10:55:58.783Z,2408
2016-12-10T10:56:58.770Z,2532
2016-12-10T10:57:58.755Z,2716
2016-12-10T10:58:58.748Z,2900
2016-12-10T10:59:58.736Z,3088
2016-12-10T11:00:58.732Z,3196
2016-12-10T11:01:58.718Z,3188
2016-12-10T11:02:58.709Z,3184
2016-12-10T11:03:59.017Z,3108
2016-12-10T11:04:58.687Z,3016
2016-12-10T11:05:58.676Z,2864
2016-12-10T11:06:58.671Z,2732
2016-12-10T11:07:58.659Z,2572
2016-12-10T11:08:58.647Z,2432
2016-12-10T11:09:58.634Z,2328
2016-12-10T11:10:58.623Z,2260
2016-12-10T11:11:58.623Z,2204
2016-12-10T11:12:58.607Z,2160
2016-12-10T11:13:58.601Z,2132
2016-12-10T11:14:58.587Z,2120
2016-12-10T11:15:58.573Z,2112
2016-12-10T11:16:58.564Z,2088
2016-12-10T11:17:58.554Z,2092
2016-12-10T11:18:58.546Z,2120
2016-12-10T11:19:58.534Z,2160
2016-12-10T11:20:58.523Z,2224
2016-12-10T11:21:58.515Z,2228
2016-12-10T11:22:58.503Z,2212
2016-12-10T11:23:58.496Z,2176
2016-12-10T11:24:58.493Z,2132
2016-12-10T11:25:58.484Z,2096
2016-12-10T11:26:58.468Z,2072
2016-12-10T11:27:58.451Z,2060
2016-12-10T11:28:58.447Z,2048
2016-12-10T11:29:58.433Z,2040
2016-12-10T11:30:58.431Z,2036
2016-12-10T11:31:58.410Z,2036
2016-12-10T11:32:58.401Z,2036
2016-12-10T11:33:58.396Z,2040
2016-12-10T11:34:58.386Z,2040
2016-12-10T11:35:58.368Z,2044
2016-12-10T11:36:58.390Z,2056
2016-12-10T11:37:58.350Z,2068
2016-12-10T11:38:58.340Z,2080
2016-12-10T11:39:58.335Z,2108
2016-12-10T11:40:58.318Z,2116
2016-12-10T11:41:58.310Z,2152
2016-12-10T11:42:58.302Z,2236
2016-12-10T11:43:58.287Z,2320
2016-12-10T11:44:58.281Z,2400
2016-12-10T11:45:58.274Z,2492
2016-12-10T11:46:58.260Z,2592
2016-12-10T11:47:58.249Z,2648
2016-12-10T11:48:58.270Z,2680
2016-12-10T11:49:58.228Z,2748
2016-12-10T11:50:58.220Z,2800
2016-12-10T11:51:58.208Z,2764
2016-12-10T11:52:58.202Z,2676
2016-12-10T11:53:58.190Z,2544
2016-12-10T11:54:58.205Z,2424
2016-12-10T11:55:58.489Z,2320
2016-12-10T11:56:58.157Z,2196
2016-12-10T11:57:58.145Z,2108
2016-12-10T11:58:58.141Z,2052
2016-12-10T11:59:58.127Z,2052
2016-12-10T12:00:58.114Z,2048
2016-12-10T12:01:58.107Z,2072
2016-12-10T12:02:58.097Z,2108
2016-12-10T12:03:58.084Z,2140
2016-12-10T12:04:58.080Z,2164
2016-12-10T12:05:58.068Z,2192
2016-12-10T12:06:58.056Z,2228
2016-12-10T12:07:58.042Z,2248
2016-12-10T12:08:58.033Z,2276
2016-12-10T12:09:58.058Z,2284
2016-12-10T12:10:58.015Z,2304
2016-12-10T12:11:58.009Z,2304
2016-12-10T12:12:57.994Z,2308
2016-12-10T12:13:57.984Z,2308
2016-12-10T12:14:57.973Z,2316
2016-12-10T12:15:57.963Z,2344
2016-12-10T12:16:57.951Z,2348
2016-12-10T12:17:57.943Z,2364
2016-12-10T12:18:57.932Z,2396
2016-12-10T12:19:57.922Z,2436
2016-12-10T12:20:57.930Z,2504
2016-12-10T12:21:57.906Z,2584
2016-12-10T12:22:57.894Z,2656
2016-12-10T12:23:57.878Z,2640
2016-12-10T12:24:57.870Z,2588
2016-12-10T12:25:57.862Z,2532
2016-12-10T12:26:57.856Z,2472
2016-12-10T12:27:57.840Z,2420
2016-12-10T12:28:57.829Z,2444
2016-12-10T12:29:57.829Z,2484
2016-12-10T12:30:57.815Z,2568
2016-12-10T12:31:57.803Z,2600
2016-12-10T12:32:57.798Z,2612
2016-12-10T12:33:57.778Z,2652
2016-12-10T12:34:57.769Z,2648
2016-12-10T12:35:57.762Z,2608
2016-12-10T12:36:57.749Z,2628
2016-12-10T12:37:57.762Z,2652
2016-12-10T12:38:57.731Z,2632
2016-12-10T12:39:57.717Z,2572
2016-12-10T12:40:57.708Z,2588
2016-12-10T12:41:57.696Z,2560
2016-12-10T12:42:57.686Z,2552
2016-12-10T12:43:57.682Z,2564
2016-12-10T12:44:57.663Z,2548
2016-12-10T12:45:57.653Z,2520
2016-12-10T12:46:57.653Z,2488
2016-12-10T12:47:57.634Z,2444
2016-12-10T12:48:57.624Z,2388
2016-12-10T12:49:57.617Z,2304
2016-12-10T12:50:57.603Z,2168
2016-12-10T12:51:57.592Z,2064
2016-12-10T12:52:57.585Z,2028
2016-12-10T12:53:57.575Z,2048
2016-12-10T12:54:57.563Z,2096
2016-12-10T12:55:57.574Z,2084
2016-12-10T12:56:57.543Z,2064
2016-12-10T12:57:57.533Z,2052
2016-12-10T12:58:57.525Z,2036
2016-12-10T12:59:57.517Z,2032
2016-12-10T13:00:57.502Z,2016
2016-12-10T13:01:57.499Z,2000
2016-12-10T13:02:57.485Z,1992
2016-12-10T13:03:57.474Z,1984
2016-12-10T13:04:57.473Z,1992
2016-12-10T13:05:57.453Z,1984
2016-12-10T13:06:57.448Z,1984
2016-12-10T13:07:57.429Z,1976
2016-12-10T13:08:57.419Z,1968
2016-12-10T13:09:57.409Z,1948
2016-12-10T13:10:57.400Z,1960
2016-12-10T13:11:57.393Z,1964
2016-12-10T13:12:57.380Z,1968
2016-12-10T13:13:57.367Z,1960
2016-12-10T13:14:57.359Z,1948
2016-12-10T13:15:57.347Z,1948
2016-12-10T13:16:57.337Z,1948
2016-12-10T13:17:57.327Z,1912
2016-12-10T13:18:57.319Z,1836
2016-12-10T13:19:57.306Z,1812
2016-12-10T13:20:57.291Z,1848
2016-12-10T13:21:57.285Z,1792
2016-12-10T13:22:57.277Z,1760
2016-12-10T13:23:57.584Z,1740
2016-12-10T13:24:57.287Z,1748
2016-12-10T13:25:57.241Z,1700
2016-12-10T13:26:57.236Z,1684
2016-12-10T13:27:57.218Z,1656
2016-12-10T13:28:57.214Z,1648
2016-12-10T13:29:57.205Z,1652
2016-12-10T13:30:57.194Z,1668
2016-12-10T13:31:57.179Z,1652
2016-12-10T13:32:57.484Z,1636
2016-12-10T13:33:57.161Z,1640
2016-12-10T13:34:57.166Z,1648
2016-12-10T13:35:57.134Z,1620
2016-12-10T13:36:57.161Z,1616
2016-12-10T13:37:57.119Z,1620
2016-12-10T13:38:57.104Z,1612
2016-12-10T13:39:57.095Z,1628
2016-12-10T13:40:57.086Z,1632
2016-12-10T13:41:57.077Z,1620
2016-12-10T13:42:57.064Z,1608
2016-12-10T13:43:57.050Z,1600
2016-12-10T13:44:57.045Z,1608
2016-12-10T13:45:57.026Z,1620
2016-12-10T13:46:57.015Z,1604
2016-12-10T13:47:57.010Z,1620
2016-12-10T13:48:56.996Z,1608
2016-12-10T13:49:56.991Z,1612
2016-12-10T13:50:56.983Z,1616
2016-12-10T13:51:56.964Z,1604
2016-12-10T13:52:56.956Z,1600
2016-12-10T13:53:56.942Z,1604
2016-12-10T13:54:56.937Z,1528
2016-12-10T13:55:57.231Z,1588
2016-12-10T13:56:56.936Z,1568
2016-12-10T13:57:56.901Z,1544
2016-12-10T13:58:56.890Z,1516
2016-12-10T13:59:56.881Z,1504
2016-12-10T14:00:56.873Z,1492